Time;durP1;ratioP1;P1;durP2;ratioP2;P2;SDS_P1;SDS_P2;PMS_P1;PMS_P2;Temp;Humidity;BMP_temperature;BMP_pressure;BME280_temperature;BME280_humidity;BME280_pressure;Samples;Min_cycle;Max_cycle;Signal;HPM_P1;HPM_P2
2021/08/01 00:01:34;;;;;;;0.80;0.50;;;18.70;99.90;;;;;;5020318;28;20565;-75
2021/08/01 00:04:00;;;;;;;0.87;0.70;;;18.60;99.90;;;;;;5018208;28;20841;-74
2021/08/01 00:06:26;;;;;;;0.73;0.57;;;18.60;99.90;;;;;;5021257;28;20176;-73
2021/08/01 00:08:52;;;;;;;1.03;0.90;;;18.60;99.90;;;;;;5030429;28;20171;-74
2021/08/01 00:11:18;;;;;;;1.20;0.80;;;18.60;99.90;;;;;;5011797;28;20434;-75
2021/08/01 00:13:43;;;;;;;2.20;1.17;;;18.50;99.90;;;;;;5013085;28;20207;-74
2021/08/01 00:16:09;;;;;;;1.47;0.80;;;18.50;99.90;;;;;;5027261;28;20171;-73
2021/08/01 00:18:35;;;;;;;2.60;2.40;;;18.50;99.90;;;;;;5020318;28;20253;-75
2021/08/01 00:21:00;;;;;;;0.80;0.60;;;18.50;99.90;;;;;;5025654;28;20205;-74
2021/08/01 00:23:26;;;;;;;0.80;0.60;;;18.40;99.90;;;;;;5023374;28;20196;-74
2021/08/01 00:25:51;;;;;;;1.27;1.10;;;18.30;99.90;;;;;;5011709;28;20226;-74
2021/08/01 00:28:17;;;;;;;0.90;0.80;;;18.30;99.90;;;;;;4994256;28;20195;-73
2021/08/01 00:30:42;;;;;;;0.70;0.50;;;18.30;99.90;;;;;;5011931;28;20204;-74
2021/08/01 00:33:08;;;;;;;1.30;0.70;;;18.30;99.90;;;;;;5008500;28;20183;-73
2021/08/01 00:35:34;;;;;;;1.40;1.30;;;18.30;99.90;;;;;;5015388;28;20215;-74
2021/08/01 00:37:59;;;;;;;1.00;0.80;;;18.20;99.90;;;;;;5017776;28;20548;-73
2021/08/01 00:40:25;;;;;;;1.47;0.90;;;18.20;99.90;;;;;;5024886;28;20243;-74
2021/08/01 00:42:50;;;;;;;2.10;0.80;;;18.20;99.90;;;;;;5015605;28;20164;-73
2021/08/01 00:45:17;;;;;;;1.33;0.70;;;18.20;99.90;;;;;;5015094;28;20612;-73
2021/08/01 00:47:43;;;;;;;0.80;0.70;;;18.10;99.90;;;;;;5021985;28;20177;-73
2021/08/01 00:50:10;;;;;;;0.80;0.60;;;18.10;99.90;;;;;;5025331;28;20433;-73
2021/08/01 00:52:36;;;;;;;0.70;0.60;;;18.10;99.90;;;;;;5035027;28;20402;-73
2021/08/01 00:55:07;;;;;;;0.80;0.70;;;18.00;99.90;;;;;;5030410;28;20447;-73
2021/08/01 00:57:33;;;;;;;0.80;0.77;;;18.00;99.90;;;;;;5019228;28;20914;-73
2021/08/01 00:59:59;;;;;;;0.70;0.60;;;18.00;99.90;;;;;;5016126;28;20536;-73
2021/08/01 01:02:35;;;;;;;0.70;0.60;;;17.90;99.90;;;;;;5026240;28;20171;-73
2021/08/01 01:05:23;;;;;;;0.90;0.70;;;17.90;99.90;;;;;;5032906;28;20437;-73
2021/08/01 01:08:08;;;;;;;0.70;0.50;;;17.90;99.90;;;;;;5023225;28;20457;-73
2021/08/01 01:10:42;;;;;;;1.77;0.80;;;18.00;99.90;;;;;;5027030;28;20489;-74
2021/08/01 01:13:13;;;;;;;0.70;0.50;;;18.00;99.90;;;;;;5027140;28;20441;-73
2021/08/01 01:15:46;;;;;;;2.00;1.03;;;17.90;99.90;;;;;;5018233;28;20557;-72
2021/08/01 01:18:23;;;;;;;0.80;0.70;;;17.90;99.90;;;;;;5021171;28;20438;-73
2021/08/01 01:21:11;;;;;;;0.80;0.70;;;17.90;99.90;;;;;;5016165;28;20496;-73
2021/08/01 01:23:51;;;;;;;1.10;0.60;;;17.90;99.90;;;;;;5020791;28;20461;-72
2021/08/01 01:26:31;;;;;;;1.27;1.17;;;17.80;99.90;;;;;;5017128;28;20863;-73
2021/08/01 01:29:06;;;;;;;1.07;0.97;;;17.80;99.90;;;;;;5016834;28;20506;-73
2021/08/01 01:31:50;;;;;;;1.97;1.67;;;17.80;99.90;;;;;;5013943;28;20426;-73
2021/08/01 01:34:31;;;;;;;0.70;0.50;;;17.80;99.90;;;;;;5030884;28;20528;-74
2021/08/01 01:37:00;;;;;;;1.30;0.87;;;17.80;99.90;;;;;;5017607;28;20502;-74
2021/08/01 01:39:29;;;;;;;0.80;0.70;;;17.70;99.90;;;;;;5015188;28;20411;-73
2021/08/01 01:41:55;;;;;;;0.80;0.80;;;17.70;99.90;;;;;;5019368;28;20426;-74
2021/08/01 01:44:21;;;;;;;0.70;0.50;;;17.70;99.90;;;;;;5014092;28;20501;-72
2021/08/01 01:46:47;;;;;;;0.80;0.60;;;17.70;99.90;;;;;;5015471;28;20462;-73
2021/08/01 01:49:14;;;;;;;1.10;0.93;;;17.70;99.90;;;;;;5016670;28;20446;-73
2021/08/01 01:51:40;;;;;;;0.77;0.60;;;17.70;99.90;;;;;;5015923;28;20411;-73
2021/08/01 01:54:07;;;;;;;0.80;0.70;;;17.70;99.90;;;;;;5024179;28;20455;-74
2021/08/01 01:56:35;;;;;;;1.17;1.07;;;17.70;99.90;;;;;;5014454;28;20435;-74
2021/08/01 01:59:02;;;;;;;0.80;0.60;;;17.70;99.90;;;;;;5014151;28;20407;-73
2021/08/01 02:01:27;;;;;;;3.70;1.20;;;17.60;99.90;;;;;;5017862;28;20520;-73
2021/08/01 02:03:53;;;;;;;0.90;0.80;;;17.70;99.90;;;;;;5019002;28;20922;-74
2021/08/01 02:06:20;;;;;;;0.80;0.77;;;17.70;99.90;;;;;;5020615;28;20601;-72
2021/08/01 02:08:58;;;;;;;2.20;1.27;;;17.70;99.90;;;;;;5017813;28;20609;-74
2021/08/01 02:11:46;;;;;;;1.03;0.70;;;17.80;99.90;;;;;;5016896;28;20875;-74
2021/08/01 02:14:40;;;;;;;0.70;0.50;;;17.80;99.90;;;;;;5029283;28;20861;-74
2021/08/01 02:17:09;;;;;;;1.00;0.90;;;17.80;99.90;;;;;;5020651;28;20427;-73
2021/08/01 02:19:37;;;;;;;0.80;0.77;;;17.80;99.90;;;;;;5019195;28;21131;-73
2021/08/01 02:22:05;;;;;;;0.77;0.73;;;17.70;99.90;;;;;;5029495;28;20947;-74
2021/08/01 02:24:32;;;;;;;0.70;0.60;;;17.70;99.90;;;;;;5019463;28;20454;-74
2021/08/01 02:26:58;;;;;;;1.17;0.57;;;17.80;99.90;;;;;;5013219;28;20423;-74
2021/08/01 02:29:25;;;;;;;0.70;0.50;;;17.80;99.90;;;;;;5013988;28;21106;-74
2021/08/01 02:31:51;;;;;;;1.20;1.10;;;17.80;99.90;;;;;;5026931;28;20803;-73
2021/08/01 02:34:17;;;;;;;0.90;0.87;;;17.80;99.90;;;;;;5009983;28;20832;-74
2021/08/01 02:36:43;;;;;;;1.90;1.23;;;17.80;99.90;;;;;;5025985;28;20433;-73
2021/08/01 02:39:09;;;;;;;1.43;1.33;;;17.80;99.90;;;;;;4995095;28;20275;-74
2021/08/01 02:41:38;;;;;;;0.80;0.67;;;17.80;99.90;;;;;;5013314;28;20554;-73
2021/08/01 02:44:30;;;;;;;1.53;1.43;;;17.70;99.90;;;;;;5013602;28;20449;-75
2021/08/01 02:46:57;;;;;;;1.30;0.70;;;17.70;99.90;;;;;;5011985;28;20437;-74
2021/08/01 02:49:26;;;;;;;0.80;0.70;;;17.70;99.90;;;;;;5023751;28;20430;-72
2021/08/01 02:51:55;;;;;;;3.13;0.60;;;17.70;99.90;;;;;;5015716;28;20426;-74
2021/08/01 02:54:22;;;;;;;0.80;0.80;;;17.70;99.90;;;;;;5013281;28;21060;-74
2021/08/01 02:56:49;;;;;;;2.17;1.10;;;17.70;99.90;;;;;;5014273;28;20781;-73
2021/08/01 02:59:16;;;;;;;0.80;0.67;;;17.60;99.90;;;;;;5016782;28;20924;-74
2021/08/01 03:01:43;;;;;;;1.07;0.63;;;17.50;99.90;;;;;;5019612;28;20459;-74
2021/08/01 03:04:14;;;;;;;0.70;0.50;;;17.50;99.90;;;;;;5024310;28;20450;-73
2021/08/01 03:06:41;;;;;;;0.70;0.60;;;17.50;99.90;;;;;;5013404;28;20466;-73
2021/08/01 03:09:06;;;;;;;0.80;0.67;;;17.40;99.90;;;;;;5022165;28;20430;-73
2021/08/01 03:11:35;;;;;;;1.50;0.90;;;17.40;99.90;;;;;;5008117;28;20465;-73
2021/08/01 03:14:02;;;;;;;3.33;2.40;;;17.40;99.90;;;;;;5020666;28;20211;-74
2021/08/01 03:16:29;;;;;;;0.80;0.60;;;17.30;99.90;;;;;;5022021;28;20481;-73
2021/08/01 03:18:55;;;;;;;0.70;0.50;;;17.30;99.90;;;;;;5029388;28;20959;-74
2021/08/01 03:21:20;;;;;;;4.90;2.30;;;17.20;99.90;;;;;;5026434;28;20624;-73
2021/08/01 03:23:46;;;;;;;0.73;0.60;;;17.30;99.90;;;;;;5006020;28;20245;-74
2021/08/01 03:26:11;;;;;;;0.80;0.70;;;17.20;99.90;;;;;;5022724;28;20187;-73
2021/08/01 03:28:37;;;;;;;1.00;1.00;;;17.20;99.90;;;;;;5005426;28;20186;-74
2021/08/01 03:31:03;;;;;;;1.10;0.80;;;17.20;99.90;;;;;;5029941;28;20175;-74
2021/08/01 03:33:28;;;;;;;1.60;1.43;;;17.20;99.90;;;;;;5029835;28;20194;-73
2021/08/01 03:35:54;;;;;;;1.07;0.80;;;17.10;99.90;;;;;;5016971;28;20192;-73
2021/08/01 03:38:19;;;;;;;1.53;1.43;;;17.10;99.90;;;;;;5012337;28;20180;-74
2021/08/01 03:40:45;;;;;;;0.73;0.57;;;17.10;99.90;;;;;;5012129;28;20661;-74
2021/08/01 03:43:10;;;;;;;0.83;0.83;;;17.10;99.90;;;;;;5023832;28;20180;-73
2021/08/01 03:45:36;;;;;;;0.90;0.70;;;17.10;99.90;;;;;;5007841;28;20621;-74
2021/08/01 03:48:01;;;;;;;2.30;1.00;;;17.10;99.90;;;;;;5029697;28;20171;-73
2021/08/01 03:50:27;;;;;;;2.10;1.97;;;17.10;99.90;;;;;;5031668;28;20250;-74
2021/08/01 03:52:53;;;;;;;0.80;0.63;;;17.00;99.90;;;;;;5030345;28;20198;-74
2021/08/01 03:55:18;;;;;;;0.80;0.60;;;17.00;99.90;;;;;;5013349;28;20678;-73
2021/08/01 03:57:44;;;;;;;0.80;0.60;;;17.00;99.90;;;;;;5012085;28;20180;-74
2021/08/01 04:00:10;;;;;;;5.00;2.10;;;17.00;99.90;;;;;;5004612;28;20195;-74
2021/08/01 04:02:37;;;;;;;2.17;1.37;;;16.90;99.90;;;;;;5031898;28;20524;-74
2021/08/01 04:05:04;;;;;;;2.07;1.10;;;16.90;99.90;;;;;;5028850;28;20445;-73
2021/08/01 04:07:30;;;;;;;1.10;1.00;;;16.90;99.90;;;;;;5020937;28;20874;-73
2021/08/01 04:09:55;;;;;;;1.00;0.80;;;16.80;99.90;;;;;;5019916;28;20513;-73
2021/08/01 04:12:22;;;;;;;1.10;1.00;;;16.80;99.90;;;;;;5024284;28;20181;-72
2021/08/01 04:14:48;;;;;;;0.77;0.73;;;16.90;99.90;;;;;;5019445;28;20231;-74
2021/08/01 04:17:17;;;;;;;0.80;0.80;;;16.80;99.90;;;;;;5025249;28;20418;-74
2021/08/01 04:19:44;;;;;;;2.30;1.33;;;16.80;99.90;;;;;;5016821;28;20544;-73
2021/08/01 04:22:09;;;;;;;7.80;2.30;;;16.80;99.90;;;;;;5007371;28;20458;-72
2021/08/01 04:24:35;;;;;;;1.40;1.30;;;16.80;99.90;;;;;;5017191;28;20567;-74
2021/08/01 04:27:00;;;;;;;0.70;0.67;;;16.80;99.90;;;;;;5014994;28;20724;-74
2021/08/01 04:29:26;;;;;;;0.70;0.60;;;16.80;99.90;;;;;;5021685;28;20535;-73
2021/08/01 04:31:51;;;;;;;0.83;0.60;;;16.80;99.90;;;;;;5012912;28;20183;-73
2021/08/01 04:34:17;;;;;;;1.10;0.80;;;16.80;99.90;;;;;;5016513;28;21860;-74
2021/08/01 04:36:42;;;;;;;1.10;1.00;;;16.80;99.90;;;;;;5015479;28;20172;-74
2021/08/01 04:39:08;;;;;;;0.80;0.77;;;16.80;99.90;;;;;;5015577;28;20707;-74
2021/08/01 04:41:33;;;;;;;1.40;0.93;;;16.80;99.90;;;;;;5023233;28;20238;-73
2021/08/01 04:43:59;;;;;;;0.70;0.60;;;16.80;99.90;;;;;;5032219;28;20195;-72
2021/08/01 04:46:25;;;;;;;1.60;1.50;;;16.80;99.90;;;;;;5019861;28;20175;-74
2021/08/01 04:48:50;;;;;;;1.03;0.73;;;16.80;99.90;;;;;;5033321;28;20961;-72
2021/08/01 04:51:16;;;;;;;2.83;2.63;;;16.80;99.90;;;;;;5018538;28;20195;-73
2021/08/01 04:53:42;;;;;;;1.10;1.00;;;16.80;99.90;;;;;;5015200;28;20193;-74
2021/08/01 04:56:10;;;;;;;0.83;0.73;;;16.90;99.90;;;;;;5014641;28;20176;-74
2021/08/01 04:58:36;;;;;;;0.93;0.80;;;16.90;99.90;;;;;;5025611;28;20207;-73
2021/08/01 05:01:12;;;;;;;0.80;0.60;;;16.90;99.90;;;;;;5019390;28;20813;-73
2021/08/01 05:03:37;;;;;;;2.63;1.97;;;17.00;99.90;;;;;;5025690;28;20432;-74
2021/08/01 05:06:03;;;;;;;1.37;1.27;;;16.90;99.90;;;;;;5018993;28;20427;-74
2021/08/01 05:08:29;;;;;;;1.10;0.70;;;16.90;99.90;;;;;;5031383;28;20175;-74
2021/08/01 05:10:54;;;;;;;0.70;0.60;;;16.90;99.90;;;;;;5024880;28;20230;-73
2021/08/01 05:13:20;;;;;;;0.80;0.60;;;17.00;99.90;;;;;;5033555;28;20175;-74
2021/08/01 05:15:45;;;;;;;0.83;0.73;;;16.90;99.90;;;;;;5019504;28;20198;-74
2021/08/01 05:18:11;;;;;;;0.70;0.50;;;16.90;99.90;;;;;;5017820;28;20211;-73
2021/08/01 05:20:44;;;;;;;0.70;0.60;;;16.80;99.90;;;;;;5018816;28;20231;-73
2021/08/01 05:23:10;;;;;;;0.70;0.50;;;16.90;99.90;;;;;;5015382;28;20191;-74
2021/08/01 05:25:36;;;;;;;1.17;0.83;;;16.80;99.90;;;;;;5015196;28;20529;-74
2021/08/01 05:28:02;;;;;;;0.80;0.70;;;16.80;99.90;;;;;;5017939;28;20855;-74
2021/08/01 05:30:28;;;;;;;1.77;0.73;;;16.80;99.90;;;;;;5007185;28;20491;-74
2021/08/01 05:32:53;;;;;;;3.23;0.70;;;16.80;99.90;;;;;;5034443;28;20195;-74
2021/08/01 05:35:19;;;;;;;1.30;1.13;;;16.80;99.90;;;;;;5020623;28;20674;-74
2021/08/01 05:37:44;;;;;;;0.80;0.73;;;16.80;99.90;;;;;;5007930;28;20184;-74
2021/08/01 05:40:11;;;;;;;0.80;0.60;;;16.90;99.90;;;;;;5014701;28;20200;-75
2021/08/01 05:42:37;;;;;;;0.70;0.50;;;16.90;99.90;;;;;;5022716;28;20244;-74
2021/08/01 05:45:04;;;;;;;0.80;0.67;;;16.90;99.90;;;;;;5011507;28;21005;-74
2021/08/01 05:47:29;;;;;;;2.93;0.83;;;16.90;99.90;;;;;;5013700;28;20783;-74
2021/08/01 05:49:55;;;;;;;0.80;0.80;;;16.90;99.90;;;;;;5014079;28;20435;-73
2021/08/01 05:52:20;;;;;;;1.73;1.23;;;17.00;99.90;;;;;;5013895;28;20184;-74
2021/08/01 05:54:46;;;;;;;1.57;1.40;;;17.00;99.90;;;;;;5014552;28;20204;-73
2021/08/01 05:57:11;;;;;;;3.70;2.30;;;17.20;99.90;;;;;;5024606;28;20222;-74
2021/08/01 05:59:37;;;;;;;0.80;0.67;;;17.30;99.90;;;;;;5032675;28;20229;-75
2021/08/01 06:02:03;;;;;;;2.50;1.87;;;17.50;99.90;;;;;;5000810;28;20172;-74
2021/08/01 06:04:28;;;;;;;1.40;0.70;;;17.70;99.90;;;;;;5025381;28;20196;-74
2021/08/01 06:06:54;;;;;;;4.00;3.40;;;17.90;99.90;;;;;;4997989;28;20664;-74
2021/08/01 06:09:19;;;;;;;3.50;1.00;;;18.10;99.90;;;;;;5014475;28;20179;-74
2021/08/01 06:11:45;;;;;;;1.00;0.90;;;18.20;99.90;;;;;;5014968;28;20203;-74
2021/08/01 06:14:10;;;;;;;1.33;1.07;;;18.50;99.90;;;;;;5013309;28;20216;-74
2021/08/01 06:16:36;;;;;;;1.33;1.13;;;18.60;99.90;;;;;;5024093;28;20541;-74
2021/08/01 06:19:02;;;;;;;2.93;1.03;;;18.90;99.90;;;;;;5032604;28;20187;-74
2021/08/01 06:21:28;;;;;;;5.23;0.73;;;19.10;99.90;;;;;;5015726;28;20204;-75
2021/08/01 06:23:53;;;;;;;1.00;0.83;;;19.20;99.90;;;;;;5008065;28;20455;-75
2021/08/01 06:26:21;;;;;;;2.40;1.27;;;19.20;99.90;;;;;;5027765;28;20544;-75
2021/08/01 06:28:48;;;;;;;0.83;0.70;;;19.30;99.90;;;;;;5016054;28;20188;-74
2021/08/01 06:31:14;;;;;;;0.90;0.70;;;19.30;99.90;;;;;;5012552;28;20435;-75
2021/08/01 06:33:40;;;;;;;0.70;0.60;;;19.50;99.90;;;;;;5017103;28;20534;-75
2021/08/01 06:36:10;;;;;;;1.80;1.70;;;19.70;99.90;;;;;;5012151;28;20178;-75
2021/08/01 06:38:37;;;;;;;1.23;1.13;;;20.10;99.90;;;;;;5020206;28;20941;-75
2021/08/01 06:41:03;;;;;;;2.07;1.97;;;20.30;99.90;;;;;;5030921;28;20555;-76
2021/08/01 06:43:29;;;;;;;0.80;0.60;;;20.50;99.90;;;;;;5016130;28;20434;-74
2021/08/01 06:45:55;;;;;;;1.03;0.90;;;20.70;99.90;;;;;;5016896;28;20783;-74
2021/08/01 06:48:20;;;;;;;1.73;1.63;;;20.80;99.90;;;;;;5013305;28;20419;-75
2021/08/01 06:50:46;;;;;;;1.40;0.90;;;21.00;99.90;;;;;;5019714;28;20298;-75
2021/08/01 06:53:12;;;;;;;1.37;1.27;;;21.10;99.90;;;;;;5011652;28;20188;-75
2021/08/01 06:55:37;;;;;;;1.63;0.83;;;21.20;99.90;;;;;;5023865;28;20195;-76
2021/08/01 06:58:03;;;;;;;1.33;0.70;;;21.40;99.90;;;;;;5032867;28;20199;-76
2021/08/01 07:00:28;;;;;;;0.80;0.60;;;21.50;99.90;;;;;;5019541;28;20210;-76
2021/08/01 07:02:55;;;;;;;1.00;0.90;;;21.50;99.90;;;;;;5019861;28;20183;-75
2021/08/01 07:05:21;;;;;;;1.10;0.63;;;21.40;99.90;;;;;;5027375;28;20195;-75
2021/08/01 07:07:47;;;;;;;0.90;0.67;;;21.60;99.90;;;;;;5019752;28;20411;-76
2021/08/01 07:10:13;;;;;;;0.70;0.60;;;21.70;99.90;;;;;;5014395;28;20426;-75
2021/08/01 07:12:41;;;;;;;1.10;1.00;;;21.70;99.90;;;;;;4999077;28;20183;-75
2021/08/01 07:15:09;;;;;;;1.40;1.30;;;21.80;99.90;;;;;;5019835;28;20547;-75
2021/08/01 07:17:35;;;;;;;0.87;0.77;;;22.00;99.90;;;;;;5018449;28;21215;-75
2021/08/01 07:20:02;;;;;;;2.20;1.53;;;22.10;99.90;;;;;;5016247;28;20477;-75
2021/08/01 07:22:28;;;;;;;0.80;0.67;;;22.00;99.90;;;;;;5028165;28;20233;-76
2021/08/01 07:24:53;;;;;;;1.40;0.70;;;22.10;99.90;;;;;;5027964;28;20954;-77
2021/08/01 07:27:19;;;;;;;3.40;3.10;;;22.10;99.90;;;;;;5032313;28;20163;-75
2021/08/01 07:29:44;;;;;;;0.73;0.50;;;22.10;99.90;;;;;;5021897;28;20179;-76
2021/08/01 07:32:10;;;;;;;1.30;1.20;;;22.20;99.90;;;;;;5011956;28;20172;-75
2021/08/01 07:34:35;;;;;;;0.80;0.60;;;22.20;99.90;;;;;;5011928;28;20676;-76
2021/08/01 07:37:01;;;;;;;1.00;0.90;;;22.50;99.90;;;;;;5012503;28;20242;-76
2021/08/01 07:39:26;;;;;;;1.00;0.90;;;22.60;99.90;;;;;;5004610;28;20571;-76
2021/08/01 07:41:52;;;;;;;1.20;1.10;;;22.80;99.90;;;;;;5014388;28;20211;-76
2021/08/01 07:44:17;;;;;;;1.10;1.00;;;23.00;99.90;;;;;;5012554;28;20275;-75
2021/08/01 07:46:43;;;;;;;0.80;0.60;;;23.00;99.90;;;;;;5026712;28;20176;-76
2021/08/01 07:49:08;;;;;;;1.20;1.10;;;23.00;99.90;;;;;;5011906;28;20368;-76
2021/08/01 07:51:34;;;;;;;2.70;0.97;;;23.00;99.90;;;;;;5012079;28;20164;-76
2021/08/01 07:53:59;;;;;;;0.87;0.60;;;23.20;99.90;;;;;;5031235;28;20241;-76
2021/08/01 07:56:25;;;;;;;0.90;0.63;;;23.40;99.90;;;;;;5031685;28;20170;-75
2021/08/01 07:58:50;;;;;;;1.30;1.20;;;23.50;99.90;;;;;;5013418;28;20676;-76
2021/08/01 08:01:16;;;;;;;1.10;0.80;;;23.80;99.90;;;;;;5031720;28;20206;-76
2021/08/01 08:03:42;;;;;;;1.30;1.00;;;23.90;99.90;;;;;;5029731;28;20207;-76
2021/08/01 08:06:08;;;;;;;1.10;0.93;;;24.00;99.90;;;;;;5029978;28;20159;-76
2021/08/01 08:08:34;;;;;;;1.43;1.30;;;24.40;99.90;;;;;;5012327;28;20421;-76
2021/08/01 08:10:59;;;;;;;0.80;0.60;;;24.30;99.90;;;;;;5031771;28;20689;-76
2021/08/01 08:13:25;;;;;;;1.43;0.93;;;24.30;99.90;;;;;;5030293;28;20246;-76
2021/08/01 08:15:50;;;;;;;1.27;0.90;;;24.60;99.90;;;;;;5025395;28;20215;-77
2021/08/01 08:18:16;;;;;;;0.90;0.73;;;24.80;99.90;;;;;;5019462;28;20187;-76
2021/08/01 08:20:42;;;;;;;3.53;1.63;;;24.80;99.90;;;;;;5030438;28;20241;-76
2021/08/01 08:23:07;;;;;;;1.67;1.00;;;24.80;99.90;;;;;;5010843;28;20169;-75
2021/08/01 08:25:33;;;;;;;0.90;0.60;;;24.80;99.90;;;;;;5010452;28;20450;-74
2021/08/01 08:27:59;;;;;;;0.90;0.77;;;25.00;99.90;;;;;;5011795;28;20175;-76
2021/08/01 08:30:24;;;;;;;1.10;0.80;;;25.20;99.90;;;;;;5011919;28;20168;-76
2021/08/01 08:32:50;;;;;;;0.80;0.60;;;25.20;99.90;;;;;;5015279;28;20251;-76
2021/08/01 08:35:15;;;;;;;3.00;1.30;;;25.40;99.90;;;;;;5028290;28;20687;-76
2021/08/01 08:37:49;;;;;;;3.37;3.07;;;25.60;99.90;;;;;;5016037;28;20188;-77
2021/08/01 08:40:15;;;;;;;0.80;0.60;;;25.90;99.90;;;;;;5014784;28;20206;-77
2021/08/01 08:42:43;;;;;;;1.20;0.70;;;26.10;99.90;;;;;;5013154;28;20873;-76
2021/08/01 08:45:10;;;;;;;0.80;0.60;;;25.90;99.90;;;;;;5001429;28;20438;-77
2021/08/01 08:47:38;;;;;;;0.80;0.60;;;25.80;99.90;;;;;;5014454;28;20419;-77
2021/08/01 08:50:06;;;;;;;1.03;0.90;;;25.90;99.90;;;;;;5013358;28;20413;-77
2021/08/01 08:52:32;;;;;;;1.10;1.00;;;26.20;99.90;;;;;;5031046;28;20823;-76
2021/08/01 08:55:02;;;;;;;0.80;0.60;;;26.30;99.90;;;;;;5018639;28;20458;-76
2021/08/01 08:57:36;;;;;;;2.20;0.80;;;26.20;99.90;;;;;;5015469;28;20400;-76
2021/08/01 09:00:06;;;;;;;0.80;0.60;;;26.30;99.90;;;;;;4997625;28;20457;-76
2021/08/01 09:02:34;;;;;;;1.63;1.23;;;26.30;99.90;;;;;;5013912;28;20526;-76
2021/08/01 09:05:00;;;;;;;1.23;0.93;;;26.60;99.90;;;;;;5014003;28;20457;-76
2021/08/01 09:07:26;;;;;;;1.03;0.93;;;26.70;99.90;;;;;;5015135;28;20395;-77
2021/08/01 09:09:53;;;;;;;1.00;0.83;;;26.90;99.90;;;;;;5015216;28;20494;-76
2021/08/01 09:12:19;;;;;;;1.40;1.30;;;27.00;99.90;;;;;;5028722;28;20499;-76
2021/08/01 09:14:45;;;;;;;1.00;0.80;;;26.60;99.90;;;;;;5022697;28;20982;-77
2021/08/01 09:17:12;;;;;;;1.13;0.97;;;26.70;99.90;;;;;;5014428;28;20176;-77
2021/08/01 09:19:44;;;;;;;0.80;0.60;;;27.00;99.90;;;;;;5014168;28;20795;-76
2021/08/01 09:22:21;;;;;;;0.80;0.60;;;27.00;99.50;;;;;;5029444;28;20971;-76
2021/08/01 09:24:49;;;;;;;1.23;0.70;;;26.90;99.90;;;;;;5034407;28;20442;-75
2021/08/01 09:27:27;;;;;;;1.53;1.43;;;26.90;99.90;;;;;;5024037;28;20418;-75
2021/08/01 09:29:53;;;;;;;1.20;0.70;;;26.70;99.90;;;;;;5014892;28;20415;-76
2021/08/01 09:32:20;;;;;;;0.80;0.60;;;26.40;99.90;;;;;;5015093;28;20473;-76
2021/08/01 09:34:47;;;;;;;1.30;0.90;;;26.50;99.90;;;;;;5014215;28;20199;-76
2021/08/01 09:37:13;;;;;;;1.10;0.93;;;26.00;99.40;;;;;;5014073;28;20493;-75
2021/08/01 09:39:42;;;;;;;0.90;0.70;;;25.80;99.90;;;;;;5014404;28;21050;-76
2021/08/01 09:42:10;;;;;;;1.30;1.17;;;25.80;99.90;;;;;;5014495;28;20176;-75
2021/08/01 09:44:38;;;;;;;0.90;0.60;;;26.00;99.90;;;;;;5031068;28;20450;-77
2021/08/01 09:47:04;;;;;;;1.67;1.00;;;26.30;99.90;;;;;;5002550;28;20561;-76
2021/08/01 09:49:30;;;;;;;4.70;1.03;;;26.30;99.70;;;;;;5014310;28;20418;-77
2021/08/01 09:52:01;;;;;;;1.73;1.37;;;26.50;98.60;;;;;;5020535;28;20580;-77
2021/08/01 09:54:43;;;;;;;0.93;0.70;;;26.50;98.40;;;;;;5018801;28;20461;-76
2021/08/01 09:57:09;;;;;;;0.80;0.60;;;26.80;96.70;;;;;;5026182;28;20426;-75
2021/08/01 09:59:35;;;;;;;2.03;0.80;;;26.90;94.60;;;;;;5009294;28;20408;-75
2021/08/01 10:02:04;;;;;;;1.30;0.70;;;26.90;95.60;;;;;;5027315;28;20168;-75
2021/08/01 10:04:42;;;;;;;1.50;1.03;;;26.80;98.50;;;;;;5033499;28;20447;-76
2021/08/01 10:07:10;;;;;;;0.80;0.50;;;26.80;97.70;;;;;;5015758;28;20413;-77
2021/08/01 10:09:38;;;;;;;1.17;1.07;;;26.60;99.90;;;;;;5031890;28;20411;-77
2021/08/01 10:12:04;;;;;;;0.90;0.73;;;26.40;99.90;;;;;;5034153;28;20770;-76
2021/08/01 10:14:30;;;;;;;1.10;0.70;;;26.10;96.90;;;;;;5019201;28;20503;-76
2021/08/01 10:16:57;;;;;;;1.10;0.60;;;25.90;98.60;;;;;;5033598;28;20506;-75
2021/08/01 10:19:23;;;;;;;1.57;1.00;;;25.90;99.90;;;;;;5030312;28;20806;-76
2021/08/01 10:21:50;;;;;;;1.63;0.90;;;26.20;99.90;;;;;;5031402;28;20535;-76
2021/08/01 10:24:24;;;;;;;1.53;1.17;;;26.50;99.90;;;;;;5033642;28;20180;-75
2021/08/01 10:26:52;;;;;;;1.40;0.87;;;26.70;99.90;;;;;;5033263;28;20398;-77
2021/08/01 10:29:40;;;;;;;1.00;0.80;;;26.90;98.40;;;;;;5031708;28;20425;-76
2021/08/01 10:32:10;;;;;;;1.00;0.70;;;27.10;96.60;;;;;;5013970;28;20403;-76
2021/08/01 10:34:36;;;;;;;1.53;1.43;;;27.50;96.80;;;;;;5016901;28;20438;-76
2021/08/01 10:37:05;;;;;;;0.90;0.60;;;27.50;96.00;;;;;;5032976;28;20470;-75
2021/08/01 10:39:34;;;;;;;1.20;1.07;;;27.30;96.20;;;;;;5012443;28;20186;-75
2021/08/01 10:42:06;;;;;;;1.20;0.97;;;27.30;97.90;;;;;;5013295;28;20490;-76
2021/08/01 10:44:33;;;;;;;1.00;0.80;;;27.50;99.90;;;;;;5013219;28;20427;-76
2021/08/01 10:46:59;;;;;;;0.90;0.80;;;27.70;97.10;;;;;;5012487;28;20423;-76
2021/08/01 10:49:26;;;;;;;1.00;0.77;;;27.90;94.40;;;;;;5022050;28;20426;-76
2021/08/01 10:51:52;;;;;;;2.00;1.17;;;28.10;95.40;;;;;;5028996;28;20411;-76
2021/08/01 10:54:20;;;;;;;0.93;0.80;;;28.20;96.90;;;;;;5030151;28;20434;-76
2021/08/01 10:57:15;;;;;;;1.63;1.47;;;28.40;96.00;;;;;;5032179;28;20930;-76
2021/08/01 10:59:43;;;;;;;1.10;0.90;;;28.70;94.60;;;;;;5032703;28;20402;-77
2021/08/01 11:02:17;;;;;;;2.33;1.37;;;29.00;93.80;;;;;;5026270;28;20414;-76
2021/08/01 11:04:45;;;;;;;2.30;0.80;;;28.90;92.90;;;;;;5013756;28;20931;-76
2021/08/01 11:07:11;;;;;;;0.97;0.87;;;29.10;89.40;;;;;;5019609;28;20769;-76
2021/08/01 11:09:36;;;;;;;1.10;0.90;;;29.30;89.70;;;;;;5029099;28;20410;-77
2021/08/01 11:12:34;;;;;;;1.53;1.00;;;29.00;84.20;;;;;;5027857;28;20415;-76
2021/08/01 11:15:01;;;;;;;0.90;0.63;;;28.80;87.60;;;;;;5027762;28;20290;-76
2021/08/01 11:17:54;;;;;;;1.00;0.80;;;28.20;90.60;;;;;;5014477;28;20891;-76
2021/08/01 11:20:21;;;;;;;1.13;1.03;;;28.10;91.50;;;;;;5020666;28;20490;-76
2021/08/01 11:22:46;;;;;;;1.20;0.93;;;28.00;89.60;;;;;;5026388;28;20980;-77
2021/08/01 11:25:18;;;;;;;0.97;0.73;;;27.60;90.90;;;;;;5031032;28;20525;-76
2021/08/01 11:28:17;;;;;;;0.90;0.70;;;27.40;92.20;;;;;;5025631;28;20176;-75
2021/08/01 11:30:58;;;;;;;1.67;1.33;;;27.10;92.70;;;;;;5014425;28;20423;-76
2021/08/01 11:33:40;;;;;;;1.23;0.90;;;26.90;93.70;;;;;;5018017;28;20830;-77
2021/08/01 11:36:17;;;;;;;1.13;0.90;;;26.70;98.30;;;;;;5019098;28;20420;-77
2021/08/01 11:38:48;;;;;;;0.87;0.67;;;26.50;97.90;;;;;;5033420;28;20425;-76
2021/08/01 11:41:38;;;;;;;1.37;1.27;;;26.50;97.70;;;;;;5029179;28;20820;-76
2021/08/01 11:44:14;;;;;;;1.07;0.90;;;26.30;98.90;;;;;;4998046;28;20793;-76
2021/08/01 11:46:58;;;;;;;1.20;1.10;;;26.30;99.90;;;;;;5013112;28;20414;-76
2021/08/01 11:49:28;;;;;;;1.00;0.70;;;26.00;99.90;;;;;;5012292;28;20427;-75
2021/08/01 11:51:56;;;;;;;1.00;0.70;;;25.90;99.90;;;;;;5011590;28;20901;-75
2021/08/01 11:54:42;;;;;;;0.90;0.70;;;25.90;99.90;;;;;;5017840;28;20438;-75
2021/08/01 11:57:12;;;;;;;1.07;0.80;;;26.10;99.90;;;;;;5014942;28;20853;-76
2021/08/01 11:59:39;;;;;;;1.17;0.70;;;26.30;99.90;;;;;;4994478;28;20419;-75
2021/08/01 12:02:12;;;;;;;3.87;1.90;;;26.60;99.90;;;;;;5012099;28;20908;-76
2021/08/01 12:04:38;;;;;;;0.87;0.67;;;26.70;99.90;;;;;;5004017;28;20438;-75
2021/08/01 12:07:04;;;;;;;1.13;1.03;;;26.50;99.90;;;;;;5027160;28;20475;-75
2021/08/01 12:09:36;;;;;;;1.40;1.20;;;26.70;99.90;;;;;;5031304;28;20521;-76
2021/08/01 12:12:03;;;;;;;1.20;0.90;;;27.00;99.90;;;;;;5033632;28;20417;-77
2021/08/01 12:14:31;;;;;;;1.80;1.03;;;27.40;99.90;;;;;;5033287;28;20449;-76
2021/08/01 12:16:59;;;;;;;2.47;2.33;;;27.60;99.60;;;;;;5031692;28;20798;-76
2021/08/01 12:19:55;;;;;;;1.30;1.03;;;27.40;95.40;;;;;;5012213;28;20417;-77
2021/08/01 12:22:22;;;;;;;1.43;1.33;;;27.20;98.70;;;;;;5008087;28;20492;-75
2021/08/01 12:24:55;;;;;;;0.80;0.60;;;27.00;99.90;;;;;;5022015;28;20466;-74
2021/08/01 12:27:32;;;;;;;0.90;0.70;;;27.10;99.90;;;;;;5022294;28;20425;-76
2021/08/01 12:30:04;;;;;;;1.10;0.80;;;27.10;99.90;;;;;;5018364;28;20421;-75
2021/08/01 12:32:29;;;;;;;1.23;1.10;;;26.90;98.90;;;;;;5028333;28;20414;-75
2021/08/01 12:35:10;;;;;;;1.50;0.90;;;26.60;99.90;;;;;;5015368;28;20441;-76
2021/08/01 12:37:40;;;;;;;1.00;0.90;;;26.40;99.90;;;;;;4998493;28;20181;-75
2021/08/01 12:40:06;;;;;;;1.13;1.03;;;26.00;99.90;;;;;;5019743;28;20857;-75
2021/08/01 12:42:32;;;;;;;1.20;0.83;;;25.60;99.90;;;;;;5015947;28;20515;-74
2021/08/01 12:44:59;;;;;;;1.20;0.70;;;25.30;99.90;;;;;;5018172;28;20513;-75
2021/08/01 12:47:27;;;;;;;1.40;1.10;;;25.00;99.90;;;;;;5026735;28;20176;-76
2021/08/01 12:50:01;;;;;;;1.23;1.13;;;25.20;99.90;;;;;;5016508;28;21192;-76
2021/08/01 12:52:27;;;;;;;0.90;0.80;;;25.50;99.90;;;;;;4997940;28;20411;-77
2021/08/01 12:54:54;;;;;;;1.30;1.20;;;26.00;99.90;;;;;;5006759;28;20437;-76